createdAt,value
2022-12-26T00:00:18.051Z,11.46
2022-12-26T00:02:21.008Z,11.43
2022-12-26T00:04:48.194Z,11.43
2022-12-26T00:06:52.056Z,11.42
2022-12-26T00:09:00.666Z,11.43
2022-12-26T00:11:03.501Z,11.56
2022-12-26T00:13:38.681Z,11.55
2022-12-26T00:15:32.246Z,11.44
2022-12-26T00:17:35.095Z,11.43
2022-12-26T00:19:38.098Z,11.45
2022-12-26T00:21:42.993Z,11.48
2022-12-26T00:23:46.356Z,11.45
2022-12-26T00:25:50.578Z,11.46
2022-12-26T00:27:53.507Z,11.50
2022-12-26T00:29:56.289Z,11.50
2022-12-26T00:32:00.414Z,11.51
2022-12-26T00:34:03.986Z,11.44
2022-12-26T00:36:09.412Z,11.46
2022-12-26T00:38:15.119Z,11.52
2022-12-26T00:40:18.518Z,11.50
2022-12-26T00:42:22.659Z,11.55
2022-12-26T00:44:28.521Z,11.48
2022-12-26T00:46:33.066Z,11.47
2022-12-26T00:48:36.446Z,11.56
2022-12-26T00:50:39.306Z,11.60
2022-12-26T00:52:42.144Z,11.60
2022-12-26T00:54:45.029Z,11.49
2022-12-26T00:56:47.878Z,11.48
2022-12-26T00:58:52.019Z,11.50
2022-12-26T01:00:55.640Z,11.50
2022-12-26T01:02:58.678Z,11.50
2022-12-26T01:05:01.449Z,11.56
2022-12-26T01:07:04.221Z,11.56
2022-12-26T01:09:07.027Z,11.56
2022-12-26T01:11:12.543Z,11.56
2022-12-26T01:13:15.957Z,11.50
2022-12-26T01:15:20.647Z,11.57
2022-12-26T01:17:23.383Z,11.55
2022-12-26T01:19:26.173Z,11.50
2022-12-26T01:21:28.962Z,11.60
2022-12-26T01:23:31.922Z,11.58
2022-12-26T01:25:34.183Z,11.51
2022-12-26T01:27:36.891Z,11.52
2022-12-26T01:29:39.685Z,11.56
2022-12-26T01:31:43.937Z,11.55
2022-12-26T01:33:46.757Z,11.55
2022-12-26T01:35:54.111Z,11.51
2022-12-26T01:37:57.155Z,11.58
2022-12-26T01:40:00.061Z,11.62
2022-12-26T01:42:02.805Z,11.58
2022-12-26T01:44:07.644Z,11.57
2022-12-26T01:46:10.637Z,11.59
2022-12-26T01:48:20.876Z,11.57
2022-12-26T01:50:31.421Z,11.53
2022-12-26T01:52:38.982Z,11.61
2022-12-26T01:54:46.637Z,11.66
2022-12-26T01:56:49.735Z,11.61
2022-12-26T01:58:56.873Z,11.68
2022-12-26T02:01:00.313Z,11.68
2022-12-26T02:03:20.845Z,11.62
2022-12-26T02:05:35.088Z,11.63
2022-12-26T02:07:43.099Z,11.58
2022-12-26T02:09:46.003Z,11.56
2022-12-26T02:12:35.673Z,11.59
2022-12-26T02:14:16.830Z,11.60
2022-12-26T02:16:20.732Z,11.57
2022-12-26T02:18:23.566Z,11.50
2022-12-26T02:20:30.201Z,11.50
2022-12-26T02:23:13.990Z,11.53
2022-12-26T02:25:41.959Z,11.57
2022-12-26T02:28:02.156Z,11.57
2022-12-26T02:30:11.510Z,11.52
2022-12-26T02:32:27.823Z,11.46
2022-12-26T02:34:43.563Z,11.44
2022-12-26T02:36:58.435Z,11.46
2022-12-26T02:39:43.799Z,11.45
2022-12-26T02:41:49.448Z,11.29
2022-12-26T02:44:23.622Z,11.29
2022-12-26T02:46:51.447Z,11.29
2022-12-26T02:49:06.104Z,11.31
2022-12-26T02:51:39.850Z,11.35
2022-12-26T02:54:10.184Z,11.34
2022-12-26T02:56:36.996Z,11.33
2022-12-26T02:59:05.845Z,11.33
2022-12-26T03:01:45.025Z,11.32
2022-12-26T03:04:07.601Z,11.29
2022-12-26T03:06:34.368Z,11.23
2022-12-26T03:08:59.079Z,11.15
2022-12-26T03:11:19.358Z,11.17
2022-12-26T03:13:29.459Z,11.17
2022-12-26T03:15:54.195Z,11.21
2022-12-26T03:18:00.997Z,11.24
2022-12-26T03:20:10.196Z,11.30
2022-12-26T03:22:28.319Z,11.28
2022-12-26T03:24:51.165Z,11.28
2022-12-26T03:26:54.558Z,11.26
2022-12-26T03:29:19.151Z,11.29
2022-12-26T03:31:21.283Z,11.23
2022-12-26T03:33:43.939Z,11.21
2022-12-26T03:35:46.888Z,11.12
2022-12-26T03:37:54.436Z,11.17
2022-12-26T03:40:27.565Z,11.13
2022-12-26T03:42:55.960Z,11.22
2022-12-26T03:45:21.960Z,11.14
2022-12-26T03:47:46.283Z,11.16
2022-12-26T03:50:12.086Z,11.12
2022-12-26T03:52:35.990Z,11.07
2022-12-26T03:55:04.699Z,11.08
2022-12-26T03:57:30.479Z,11.13
2022-12-26T03:59:54.391Z,11.20
2022-12-26T04:02:19.133Z,11.18
2022-12-26T04:04:43.708Z,11.26
2022-12-26T04:07:11.606Z,11.30
2022-12-26T04:09:36.866Z,11.29
2022-12-26T04:12:02.833Z,11.35
2022-12-26T04:14:29.450Z,11.43
2022-12-26T04:16:52.891Z,11.50
2022-12-26T04:19:26.971Z,11.47
2022-12-26T04:21:53.537Z,11.52
2022-12-26T04:24:18.665Z,11.50
2022-12-26T04:26:47.232Z,11.50
2022-12-26T04:29:09.257Z,11.52
2022-12-26T04:31:36.172Z,11.50
2022-12-26T04:34:03.573Z,11.50
2022-12-26T04:36:28.206Z,11.48
2022-12-26T04:38:56.280Z,11.48
2022-12-26T04:41:20.574Z,11.49
2022-12-26T04:43:49.086Z,11.52
2022-12-26T04:45:55.853Z,11.49
2022-12-26T04:48:16.034Z,11.43
2022-12-26T04:50:19.983Z,11.45
2022-12-26T04:52:22.806Z,11.47
2022-12-26T04:54:26.272Z,11.47
2022-12-26T04:56:29.460Z,11.47
2022-12-26T04:58:32.335Z,11.44
2022-12-26T05:00:35.145Z,11.40
2022-12-26T05:02:56.801Z,11.43
2022-12-26T05:05:17.475Z,11.43
2022-12-26T05:07:41.243Z,11.47
2022-12-26T05:09:44.169Z,11.43
2022-12-26T05:11:47.190Z,11.47
2022-12-26T05:13:50.024Z,11.49
2022-12-26T05:16:10.342Z,11.47
2022-12-26T05:18:29.114Z,11.51
2022-12-26T05:20:49.591Z,11.50
2022-12-26T05:23:11.017Z,11.50
2022-12-26T05:25:44.187Z,11.48
2022-12-26T05:28:04.710Z,11.45
2022-12-26T05:30:08.889Z,11.56
2022-12-26T05:32:11.666Z,11.53
2022-12-26T05:34:17.434Z,11.53
2022-12-26T05:36:22.595Z,11.55
2022-12-26T05:38:25.543Z,11.58
2022-12-26T05:40:28.374Z,11.57
2022-12-26T05:42:31.169Z,11.64
2022-12-26T05:44:33.956Z,11.61
2022-12-26T05:46:37.424Z,11.67
2022-12-26T05:48:40.259Z,11.62
2022-12-26T05:50:44.448Z,11.62
2022-12-26T05:52:47.219Z,11.62
2022-12-26T05:54:50.004Z,11.68
2022-12-26T05:56:54.456Z,11.66
2022-12-26T05:58:59.193Z,11.67
2022-12-26T06:01:05.393Z,11.63
2022-12-26T06:03:08.266Z,11.67
2022-12-26T06:05:11.342Z,11.75
2022-12-26T06:07:15.468Z,11.72
2022-12-26T06:09:18.218Z,11.70
2022-12-26T06:11:23.054Z,11.72
2022-12-26T06:13:26.185Z,11.67
2022-12-26T06:15:28.956Z,11.64
2022-12-26T06:17:31.737Z,11.64
2022-12-26T06:19:34.510Z,11.67
2022-12-26T06:21:37.605Z,11.60
2022-12-26T06:23:42.732Z,11.59
2022-12-26T06:25:45.286Z,11.64
2022-12-26T06:27:48.055Z,11.64
2022-12-26T06:29:50.792Z,11.74
2022-12-26T06:31:53.655Z,11.77
2022-12-26T06:33:59.298Z,11.76
2022-12-26T06:36:06.993Z,11.78
2022-12-26T06:38:10.199Z,11.76
2022-12-26T06:40:14.469Z,11.73
2022-12-26T06:42:17.211Z,11.70
2022-12-26T06:44:20.151Z,11.70
2022-12-26T06:46:24.818Z,11.67
2022-12-26T06:48:28.127Z,11.62
2022-12-26T06:50:31.137Z,11.69
2022-12-26T06:52:34.087Z,11.69
2022-12-26T06:54:36.896Z,11.72
2022-12-26T06:56:41.110Z,11.66
2022-12-26T06:58:44.052Z,11.68
2022-12-26T07:00:46.889Z,11.74
2022-12-26T07:02:52.586Z,11.78
2022-12-26T07:04:55.369Z,11.74
2022-12-26T07:06:58.207Z,11.71
2022-12-26T07:09:03.620Z,11.79
2022-12-26T07:11:06.472Z,11.72
2022-12-26T07:13:10.571Z,11.70
2022-12-26T07:15:13.593Z,11.68
2022-12-26T07:17:16.336Z,11.69
2022-12-26T07:19:19.185Z,11.61
2022-12-26T07:21:23.637Z,11.61
2022-12-26T07:23:26.413Z,11.61
2022-12-26T07:25:29.190Z,11.58
2022-12-26T07:27:32.036Z,11.56
2022-12-26T07:29:36.133Z,11.57
2022-12-26T07:31:39.460Z,11.55
2022-12-26T07:33:42.343Z,11.59
2022-12-26T07:35:45.162Z,11.59
2022-12-26T07:37:47.952Z,11.59
2022-12-26T07:39:55.232Z,11.57
2022-12-26T07:42:01.615Z,11.59
2022-12-26T07:44:05.976Z,11.51
2022-12-26T07:46:10.282Z,11.52
2022-12-26T07:48:13.096Z,11.59
2022-12-26T07:50:15.938Z,11.52
2022-12-26T07:52:19.824Z,11.52
2022-12-26T07:54:22.796Z,11.57
2022-12-26T07:56:25.681Z,11.64
2022-12-26T07:58:28.907Z,11.57
2022-12-26T08:00:31.749Z,11.57
2022-12-26T08:02:36.137Z,11.46
2022-12-26T08:04:39.226Z,11.41
2022-12-26T08:06:42.039Z,11.42
2022-12-26T08:08:50.501Z,11.44
2022-12-26T08:11:00.033Z,11.54
2022-12-26T08:13:03.761Z,11.47
2022-12-26T08:15:07.407Z,11.51
2022-12-26T08:17:10.299Z,11.52
2022-12-26T08:19:14.498Z,11.54
2022-12-26T08:21:17.459Z,11.52
2022-12-26T08:23:20.292Z,11.52
2022-12-26T08:25:23.047Z,11.50
2022-12-26T08:27:25.889Z,11.53
2022-12-26T08:29:28.739Z,11.52
2022-12-26T08:31:31.601Z,11.49
2022-12-26T08:33:35.585Z,11.42
2022-12-26T08:35:40.602Z,11.39
2022-12-26T08:37:44.301Z,11.31
2022-12-26T08:39:47.075Z,11.27
2022-12-26T08:41:49.783Z,11.23
2022-12-26T08:46:17.517Z,11.21
2022-12-26T08:48:20.363Z,11.30
2022-12-26T08:50:23.129Z,11.38
2022-12-26T08:52:27.263Z,11.46
2022-12-26T08:54:30.084Z,11.48
2022-12-26T08:56:33.120Z,11.50
2022-12-26T08:58:36.315Z,11.55
2022-12-26T09:00:39.104Z,11.52
2022-12-26T09:02:41.975Z,11.51
2022-12-26T09:04:44.874Z,11.60
2022-12-26T09:06:47.649Z,11.71
2022-12-26T09:08:52.503Z,11.72
2022-12-26T09:10:55.653Z,11.58
2022-12-26T09:12:58.392Z,11.64
2022-12-26T09:15:01.169Z,11.72
2022-12-26T09:17:05.078Z,11.72
2022-12-26T09:19:07.923Z,11.72
2022-12-26T09:21:12.082Z,11.69
2022-12-26T09:23:15.396Z,11.70
2022-12-26T09:25:20.371Z,11.76
2022-12-26T09:27:23.645Z,11.73
2022-12-26T09:29:26.386Z,11.68
2022-12-26T09:31:31.410Z,11.68
2022-12-26T09:33:37.503Z,11.64
2022-12-26T09:35:40.950Z,11.60
2022-12-26T09:37:43.860Z,11.58
2022-12-26T09:39:46.676Z,11.59
2022-12-26T09:42:00.656Z,11.62
2022-12-26T09:44:10.200Z,11.44
2022-12-26T09:46:19.636Z,11.42
2022-12-26T09:48:28.719Z,11.39
2022-12-26T09:50:39.630Z,11.29
2022-12-26T09:52:51.780Z,11.34
2022-12-26T09:54:58.571Z,11.44
2022-12-26T09:57:14.567Z,11.46
2022-12-26T09:59:24.244Z,11.46
2022-12-26T10:01:31.186Z,11.46
2022-12-26T10:03:39.165Z,11.47
2022-12-26T10:05:58.795Z,11.48
2022-12-26T10:08:14.182Z,11.59
2022-12-26T10:10:21.559Z,11.57
2022-12-26T10:12:37.896Z,11.57
2022-12-26T10:14:45.110Z,11.58
2022-12-26T10:16:54.278Z,11.63
2022-12-26T10:19:04.227Z,11.65
2022-12-26T10:21:30.211Z,11.76
2022-12-26T10:23:39.692Z,11.78
2022-12-26T10:25:46.351Z,11.79
2022-12-26T10:27:51.855Z,11.73
2022-12-26T10:29:59.352Z,11.78
2022-12-26T10:32:06.260Z,11.85
2022-12-26T10:34:17.809Z,11.94
2022-12-26T10:36:30.622Z,11.98
2022-12-26T10:38:40.781Z,11.97
2022-12-26T10:40:47.339Z,11.92
2022-12-26T10:42:54.534Z,11.96
2022-12-26T10:44:58.453Z,11.94
2022-12-26T10:47:15.824Z,11.98
2022-12-26T10:49:23.027Z,12.12
2022-12-26T10:51:26.817Z,12.18
2022-12-26T10:53:29.732Z,12.15
2022-12-26T10:55:35.199Z,12.14
2022-12-26T10:57:41.374Z,12.11
2022-12-26T10:59:49.730Z,12.11
2022-12-26T11:01:52.852Z,12.02
2022-12-26T11:03:57.318Z,12.05
2022-12-26T11:06:08.081Z,12.14
2022-12-26T11:08:19.843Z,12.16
2022-12-26T11:10:25.862Z,12.14
2022-12-26T11:12:40.041Z,12.15
2022-12-26T11:14:46.619Z,12.23
2022-12-26T11:16:50.312Z,12.21
2022-12-26T11:18:54.175Z,12.19
2022-12-26T11:21:13.130Z,12.30
2022-12-26T11:23:25.654Z,12.27
2022-12-26T11:25:29.391Z,12.22
2022-12-26T11:27:32.154Z,12.20
2022-12-26T11:29:37.086Z,12.33
2022-12-26T11:31:43.722Z,12.33
2022-12-26T11:33:47.452Z,12.30
2022-12-26T11:35:55.112Z,12.25
2022-12-26T11:37:59.397Z,12.24
2022-12-26T11:40:02.495Z,12.31
2022-12-26T11:42:11.266Z,12.33
2022-12-26T11:44:22.952Z,12.44
2022-12-26T11:46:36.498Z,12.46
2022-12-26T11:48:40.975Z,12.53
2022-12-26T11:50:46.322Z,12.41
2022-12-26T11:52:55.017Z,12.39
2022-12-26T11:54:57.918Z,12.48
2022-12-26T11:57:20.381Z,12.56
2022-12-26T11:59:24.347Z,12.61
2022-12-26T12:01:27.178Z,12.62
2022-12-26T12:03:33.219Z,12.63
2022-12-26T12:05:46.978Z,12.61
2022-12-26T12:08:06.316Z,12.53
2022-12-26T12:10:29.866Z,12.48
2022-12-26T12:12:39.523Z,12.52
2022-12-26T12:14:56.179Z,12.59
2022-12-26T12:17:12.010Z,12.57
2022-12-26T12:19:35.007Z,12.55
2022-12-26T12:21:45.567Z,12.51
2022-12-26T12:24:14.565Z,12.47
2022-12-26T12:26:22.707Z,12.54
2022-12-26T12:28:51.216Z,12.60
2022-12-26T12:31:02.628Z,12.54
2022-12-26T12:33:31.650Z,12.59
2022-12-26T12:35:53.506Z,12.60
2022-12-26T12:38:22.766Z,12.69
2022-12-26T12:40:37.055Z,12.60
2022-12-26T12:42:51.958Z,12.60
2022-12-26T12:45:14.895Z,12.49
2022-12-26T12:47:44.045Z,12.53
2022-12-26T12:49:59.572Z,12.56
2022-12-26T12:52:14.116Z,12.60
2022-12-26T12:54:38.743Z,12.61
2022-12-26T12:56:50.475Z,12.68
2022-12-26T12:59:01.773Z,12.63
2022-12-26T13:01:09.117Z,12.56
2022-12-26T13:03:20.338Z,12.54
2022-12-26T13:05:41.570Z,12.56
2022-12-26T13:07:50.908Z,12.60
2022-12-26T13:09:59.521Z,12.61
2022-12-26T13:12:05.927Z,12.66
2022-12-26T13:14:17.174Z,12.60
2022-12-26T13:16:24.343Z,12.61
2022-12-26T13:18:32.252Z,12.72
2022-12-26T13:20:41.541Z,12.62
2022-12-26T13:23:05.801Z,12.67
2022-12-26T13:25:12.560Z,12.63
2022-12-26T13:27:21.525Z,12.64
2022-12-26T13:29:34.704Z,12.68
2022-12-26T13:31:40.617Z,12.65
2022-12-26T13:33:44.791Z,12.71
2022-12-26T13:35:58.628Z,12.75
2022-12-26T13:38:01.420Z,12.80
2022-12-26T13:40:07.886Z,12.86
2022-12-26T13:42:49.611Z,12.81
2022-12-26T13:44:53.654Z,12.76
2022-12-26T13:46:58.840Z,12.68
2022-12-26T13:49:01.689Z,12.70
2022-12-26T13:51:06.582Z,12.64
2022-12-26T13:53:29.427Z,12.68
2022-12-26T13:55:43.894Z,12.46
2022-12-26T13:57:48.344Z,12.48
2022-12-26T14:00:04.891Z,12.39
2022-12-26T14:03:16.861Z,12.40
2022-12-26T14:05:22.493Z,12.32
2022-12-26T14:07:31.135Z,12.34
2022-12-26T14:10:00.252Z,12.28
2022-12-26T14:12:16.248Z,12.29
2022-12-26T14:14:33.461Z,12.29
2022-12-26T14:16:47.352Z,12.35
2022-12-26T14:18:58.252Z,12.21
2022-12-26T14:21:20.992Z,12.20
2022-12-26T14:23:35.849Z,12.25
2022-12-26T14:25:51.663Z,12.03
2022-12-26T14:28:01.219Z,12.06
2022-12-26T14:30:21.717Z,12.03
2022-12-26T14:32:41.115Z,11.96
2022-12-26T14:34:56.714Z,12.04
2022-12-26T14:37:12.123Z,11.95
2022-12-26T14:39:26.427Z,11.98
2022-12-26T14:41:47.208Z,11.96
2022-12-26T14:43:56.270Z,11.95
2022-12-26T14:46:03.947Z,11.94
2022-12-26T14:48:41.667Z,11.95
2022-12-26T14:50:46.592Z,11.94
2022-12-26T14:52:49.793Z,11.89
2022-12-26T14:54:53.622Z,11.81
2022-12-26T14:56:55.925Z,11.83
2022-12-26T14:59:30.283Z,11.84
2022-12-26T15:02:01.467Z,11.76
2022-12-26T15:04:08.273Z,11.79
2022-12-26T15:06:46.469Z,11.80
2022-12-26T15:09:05.134Z,11.77
2022-12-26T15:11:37.809Z,11.78
2022-12-26T15:14:05.896Z,11.81
2022-12-26T15:16:28.740Z,11.80
2022-12-26T15:19:10.695Z,11.80
2022-12-26T15:21:49.335Z,11.82
2022-12-26T15:24:26.986Z,11.86
2022-12-26T15:27:10.454Z,11.82
2022-12-26T15:29:34.135Z,11.85
2022-12-26T15:31:50.007Z,11.83
2022-12-26T15:33:59.910Z,11.80
2022-12-26T15:36:08.181Z,11.83
2022-12-26T15:38:22.179Z,11.80
2022-12-26T15:40:28.604Z,11.74
2022-12-26T15:42:45.888Z,11.75
2022-12-26T15:44:58.299Z,11.77
2022-12-26T15:47:15.743Z,11.70
2022-12-26T15:49:40.475Z,11.74
2022-12-26T15:51:56.166Z,11.70
2022-12-26T15:54:15.784Z,11.77
2022-12-26T15:56:48.933Z,11.79
2022-12-26T15:59:09.484Z,11.81
2022-12-26T16:01:13.287Z,11.83
2022-12-26T16:03:42.706Z,11.92
2022-12-26T16:05:53.684Z,11.91
2022-12-26T16:08:05.024Z,11.94
2022-12-26T16:10:28.612Z,11.92
2022-12-26T16:12:34.083Z,11.88
2022-12-26T16:14:40.483Z,11.87
2022-12-26T16:16:43.415Z,11.82
2022-12-26T16:18:46.179Z,11.78
2022-12-26T16:21:09.126Z,11.73
2022-12-26T16:23:15.635Z,11.68
2022-12-26T16:25:22.817Z,11.52
2022-12-26T16:27:26.469Z,11.44
2022-12-26T16:29:31.393Z,11.33
2022-12-26T16:31:34.223Z,11.15
2022-12-26T16:33:41.151Z,11.03
2022-12-26T16:35:44.677Z,11.01
2022-12-26T16:37:48.100Z,11.07
2022-12-26T16:40:18.180Z,11.01
2022-12-26T16:42:31.897Z,10.92
2022-12-26T16:44:39.793Z,10.73
2022-12-26T16:46:42.741Z,10.61
2022-12-26T16:48:50.195Z,10.48
2022-12-26T16:50:56.098Z,10.31
2022-12-26T16:53:14.045Z,10.21
2022-12-26T16:55:42.719Z,10.23
2022-12-26T16:57:46.858Z,10.10
2022-12-26T16:59:53.391Z,10.12
2022-12-26T17:01:59.118Z,10.18
2022-12-26T17:04:05.364Z,10.14
2022-12-26T17:06:12.371Z,10.11
2022-12-26T17:08:16.128Z,10.06
2022-12-26T17:10:22.849Z,10.06
2022-12-26T17:12:29.381Z,10.01
2022-12-26T17:14:36.651Z,9.97
2022-12-26T17:16:39.499Z,9.96
2022-12-26T17:18:47.787Z,10.01
2022-12-26T17:20:50.812Z,10.05
2022-12-26T17:22:55.380Z,10.06
2022-12-26T17:25:26.463Z,10.09
2022-12-26T17:27:32.187Z,10.02
2022-12-26T17:29:49.218Z,10.06
2022-12-26T17:31:52.008Z,10.25
2022-12-26T17:33:56.661Z,10.51
2022-12-26T17:38:28.903Z,10.55
2022-12-26T17:40:35.288Z,10.45
2022-12-26T17:42:45.586Z,10.64
2022-12-26T17:44:49.775Z,10.61
2022-12-26T17:46:52.527Z,10.36
2022-12-26T17:48:55.276Z,10.46
2022-12-26T17:51:00.012Z,10.36
2022-12-26T17:53:08.019Z,10.38
2022-12-26T17:55:17.621Z,10.25
2022-12-26T17:57:22.737Z,10.09
2022-12-26T17:59:25.560Z,10.06
2022-12-26T18:01:29.960Z,10.04
2022-12-26T18:03:32.828Z,9.90
2022-12-26T18:05:37.230Z,9.92
2022-12-26T18:07:40.920Z,9.91
2022-12-26T18:09:44.315Z,9.87
2022-12-26T18:11:47.072Z,9.72
2022-12-26T18:13:49.760Z,9.65
2022-12-26T18:15:54.470Z,9.64
2022-12-26T18:17:59.033Z,9.61
2022-12-26T18:20:02.197Z,9.59
2022-12-26T18:22:13.875Z,9.67
2022-12-26T18:24:16.675Z,9.68
2022-12-26T18:26:25.079Z,9.70
2022-12-26T18:28:28.652Z,9.58
2022-12-26T18:30:31.541Z,9.59
2022-12-26T18:32:34.845Z,9.61
2022-12-26T18:34:39.028Z,9.50
2022-12-26T18:36:43.052Z,9.43
2022-12-26T18:38:46.202Z,9.37
2022-12-26T18:40:52.856Z,9.32
2022-12-26T18:42:55.931Z,9.37
2022-12-26T18:44:58.741Z,9.44
2022-12-26T18:47:01.578Z,9.43
2022-12-26T18:49:04.399Z,9.38
2022-12-26T18:51:08.631Z,9.38
2022-12-26T18:53:11.696Z,9.39
2022-12-26T18:55:14.626Z,9.42
2022-12-26T18:57:20.530Z,9.39
2022-12-26T18:59:23.453Z,9.41
2022-12-26T19:01:27.340Z,9.39
2022-12-26T19:03:30.371Z,9.34
2022-12-26T19:05:34.484Z,9.19
2022-12-26T19:07:38.624Z,9.18
2022-12-26T19:09:44.107Z,9.12
2022-12-26T19:11:47.056Z,9.08
2022-12-26T19:13:49.923Z,9.07
2022-12-26T19:15:52.687Z,9.13
2022-12-26T19:17:55.442Z,9.15
2022-12-26T19:19:59.084Z,9.16
2022-12-26T19:22:01.894Z,9.13
2022-12-26T19:24:06.579Z,9.12
2022-12-26T19:26:10.894Z,9.07
2022-12-26T19:28:13.722Z,9.03
2022-12-26T19:30:17.584Z,8.99
2022-12-26T19:32:20.380Z,9.02
2022-12-26T19:34:23.466Z,9.02
2022-12-26T19:36:26.307Z,8.94
2022-12-26T19:38:29.141Z,8.96
2022-12-26T19:40:33.276Z,8.95
2022-12-26T19:42:37.391Z,8.86
2022-12-26T19:44:40.270Z,8.86
2022-12-26T19:46:43.170Z,8.95
2022-12-26T19:48:46.829Z,8.85
2022-12-26T19:50:49.706Z,8.89
2022-12-26T19:52:52.466Z,8.94
2022-12-26T19:54:55.385Z,9.02
2022-12-26T19:56:59.594Z,9.00
2022-12-26T19:59:02.414Z,9.07
2022-12-26T20:01:10.036Z,9.09
2022-12-26T20:03:13.209Z,9.05
2022-12-26T20:05:16.094Z,9.00
2022-12-26T20:07:18.877Z,8.95
2022-12-26T20:09:21.677Z,8.98
2022-12-26T20:11:28.245Z,8.93
2022-12-26T20:13:32.369Z,8.90
2022-12-26T20:15:35.230Z,8.89
2022-12-26T20:17:38.049Z,8.89
2022-12-26T20:19:40.923Z,8.90
2022-12-26T20:21:43.764Z,8.97
2022-12-26T20:23:46.693Z,8.88
2022-12-26T20:25:49.484Z,8.84
2022-12-26T20:27:52.425Z,8.78
2022-12-26T20:29:56.581Z,8.82
2022-12-26T20:31:59.833Z,8.77
2022-12-26T20:34:03.396Z,8.87
2022-12-26T20:36:10.181Z,8.88
2022-12-26T20:38:12.930Z,8.72
2022-12-26T20:40:15.755Z,8.76
2022-12-26T20:42:19.510Z,8.73
2022-12-26T20:44:22.455Z,8.68
2022-12-26T20:46:28.157Z,8.57
2022-12-26T20:48:31.269Z,8.55
2022-12-26T20:50:34.096Z,8.51
2022-12-26T20:52:36.947Z,8.55
2022-12-26T20:54:39.749Z,8.53
2022-12-26T20:56:43.039Z,8.47
2022-12-26T20:58:46.111Z,8.42
2022-12-26T21:00:48.911Z,8.42
2022-12-26T21:02:53.913Z,8.36
2022-12-26T21:04:56.819Z,8.31
2022-12-26T21:06:59.932Z,8.21
2022-12-26T21:09:04.178Z,8.16
2022-12-26T21:11:08.741Z,8.18
2022-12-26T21:13:11.827Z,8.20
2022-12-26T21:15:14.649Z,8.16
2022-12-26T21:17:19.078Z,8.16
2022-12-26T21:19:25.055Z,8.14
2022-12-26T21:21:30.097Z,8.07
2022-12-26T21:23:32.881Z,7.93
2022-12-26T21:25:38.257Z,7.93
2022-12-26T21:27:42.914Z,8.00
2022-12-26T21:29:46.006Z,8.01
2022-12-26T21:31:49.527Z,7.92
2022-12-26T21:33:52.821Z,8.00
2022-12-26T21:35:57.186Z,8.02
2022-12-26T21:38:00.255Z,7.95
2022-12-26T21:40:03.243Z,7.94
2022-12-26T21:42:08.152Z,7.93
2022-12-26T21:44:10.806Z,7.86
2022-12-26T21:46:17.947Z,7.92
2022-12-26T21:48:20.773Z,7.89
2022-12-26T21:50:23.529Z,7.88
2022-12-26T21:52:27.922Z,7.92
2022-12-26T21:54:49.415Z,7.88
2022-12-26T21:56:52.704Z,7.89
2022-12-26T21:59:15.315Z,7.78
2022-12-26T22:01:18.737Z,7.73
2022-12-26T22:03:39.304Z,7.68
2022-12-26T22:05:42.827Z,7.66
2022-12-26T22:07:47.680Z,7.66
2022-12-26T22:09:50.302Z,7.56
2022-12-26T22:12:10.445Z,7.61
2022-12-26T22:14:13.252Z,7.62
2022-12-26T22:16:16.250Z,7.60
2022-12-26T22:18:19.671Z,7.55
2022-12-26T22:20:22.865Z,7.48
2022-12-26T22:22:25.732Z,7.52
2022-12-26T22:24:29.889Z,7.48
2022-12-26T22:26:32.802Z,7.50
2022-12-26T22:28:35.929Z,7.49
2022-12-26T22:30:38.758Z,7.42
2022-12-26T22:32:41.672Z,7.38
2022-12-26T22:34:46.287Z,7.36
2022-12-26T22:36:49.918Z,7.34
2022-12-26T22:38:52.936Z,7.27
2022-12-26T22:40:59.664Z,7.21
2022-12-26T22:43:02.556Z,7.20
2022-12-26T22:45:06.030Z,7.25
2022-12-26T22:47:08.814Z,7.29
2022-12-26T22:49:11.860Z,7.29
2022-12-26T22:51:17.156Z,7.30
2022-12-26T22:53:23.072Z,7.33
2022-12-26T22:55:25.909Z,7.24
2022-12-26T22:57:30.070Z,7.25
2022-12-26T23:00:06.371Z,7.23
2022-12-26T23:01:55.693Z,7.34
2022-12-26T23:04:00.605Z,7.20
2022-12-26T23:06:03.458Z,7.10
2022-12-26T23:08:07.547Z,7.11
2022-12-26T23:10:18.873Z,7.09
2022-12-26T23:12:40.116Z,7.12
2022-12-26T23:14:44.548Z,7.16
2022-12-26T23:16:52.402Z,7.21
2022-12-26T23:19:17.303Z,7.21
2022-12-26T23:21:38.833Z,7.15
2022-12-26T23:23:42.097Z,7.18
2022-12-26T23:25:44.917Z,7.22
2022-12-26T23:28:05.081Z,7.23
2022-12-26T23:30:21.281Z,7.29
2022-12-26T23:32:24.040Z,7.21
2022-12-26T23:34:27.090Z,7.24
2022-12-26T23:36:29.920Z,7.10
2022-12-26T23:38:32.729Z,7.08
2022-12-26T23:40:35.561Z,7.04
2022-12-26T23:42:38.952Z,7.03
2022-12-26T23:44:43.053Z,7.08
2022-12-26T23:46:47.340Z,7.13
2022-12-26T23:48:50.143Z,7.10
2022-12-26T23:51:01.837Z,7.11
2022-12-26T23:53:04.871Z,7.13
2022-12-26T23:55:08.355Z,7.09
2022-12-26T23:57:11.165Z,7.08
2022-12-26T23:59:14.036Z,7.01
